Marigola — IBEL — position and weather

sailwx.info

Track history (hours):
 
Tides and Currents Weather Stations Pressure Air Temp Water Temp Dewpoint Dewpoint Depression Visibility Wind Speed Wind Dir Waves Ship Positions

Marigola

Last reported at 2016-Jul-13 14:13 UTC. Time now 2016-Jul-27 21:08 UTC.
Position N 29°22' W 094°48'.
Warning: this ship's position is 14 days out of date.

Length 145 m; draft 8.7 m.

Type: Ship (hazmat cat A). MMSI: 247567000.

Date/timePositionNaut miles runAvg speedWind from/ knotsBaromVisibWave heightAir tempDewpointWater temp
2016-Jul-13 14:13N 29°22' W 094°48'812.0
2016-Jul-13 13:31N 29°29' W 094°52'1111.5
2016-Jul-13 12:32N 29°39' W 094°58'9 8.8
2016-Jul-13 11:33N 29°46' W 095°04'6 6.2
2016-Jul-13 10:33N 29°45' W 095°11'1 0.8
2016-Jul-13 09:33N 29°44' W 095°12'0 0.0
2016-Jul-13 08:33N 29°44' W 095°12'0 0.0
2016-Jul-13 07:30N 29°44' W 095°12'0 0.0
2016-Jul-13 05:33N 29°44' W 095°12'0 0.0
2016-Jul-13 04:33N 29°44' W 095°12'0 0.0
2016-Jul-13 03:33N 29°44' W 095°12'0 0.0
2016-Jul-13 02:33N 29°44' W 095°12'0 0.0
2016-Jul-13 01:33N 29°44' W 095°12'0 0.0
2016-Jul-13 00:33N 29°44' W 095°12'0 0.0
2016-Jul-12 23:30N 29°44' W 095°12'0 0.0
2016-Jul-12 22:33N 29°44' W 095°12'0 0.0
2016-Jul-12 21:33N 29°44' W 095°12'0 0.0
2016-Jul-12 20:33N 29°44' W 095°12'0 0.0
2016-Jul-12 19:27N 29°44' W 095°12'0 0.0
2016-Jul-12 18:30N 29°44' W 095°12'0 0.0
2016-Jul-12 17:33N 29°44' W 095°12'0 0.0
2016-Jul-12 16:24N 29°44' W 095°12'0 0.0
2016-Jul-12 15:33N 29°44' W 095°12'0 0.0
2016-Jul-12 14:33N 29°44' W 095°12'0 0.0
2016-Jul-12 13:33N 29°44' W 095°12'0 0.0
2016-Jul-12 12:30N 29°44' W 095°12'0 0.0
2016-Jul-12 11:27N 29°44' W 095°12'0 0.0
2016-Jul-12 10:33N 29°44' W 095°12'0 0.0
2016-Jul-12 09:30N 29°44' W 095°12'0 0.0
2016-Jul-12 08:33N 29°44' W 095°12'0 0.0
2016-Jul-12 07:33N 29°44' W 095°12'0 0.0
2016-Jul-12 06:33N 29°44' W 095°12'0 0.0
2016-Jul-12 05:33N 29°44' W 095°12'0 0.0
2016-Jul-12 04:30N 29°44' W 095°12'0 0.0
2016-Jul-12 03:24N 29°44' W 095°12'0 0.0
2016-Jul-12 02:30N 29°44' W 095°12'0 0.0
2016-Jul-12 01:33N 29°44' W 095°12'0 0.0
2016-Jul-12 00:33N 29°44' W 095°12'0 0.0
2016-Jul-11 23:33N 29°44' W 095°12'0 0.0
2016-Jul-11 22:30N 29°44' W 095°12'0 0.0
2016-Jul-11 21:33N 29°44' W 095°12'0 0.0
2016-Jul-11 20:33N 29°44' W 095°12'0 0.0
2016-Jul-11 19:30N 29°44' W 095°12'0 0.1
2016-Jul-11 18:33N 29°44' W 095°12'5 5.0
2016-Jul-11 17:33N 29°44' W 095°07'7 6.5
2016-Jul-11 16:33N 29°42' W 094°60'1313.0
2016-Jul-11 15:32N 29°30' W 094°52'11512.2
2016-Jul-11 06:06N 28°22' W 093°07'  
Track history (hours):
 
Tides and Currents Weather Stations Pressure Air Temp Water Temp Dewpoint Dewpoint Depression Visibility Wind Speed Wind Dir Waves Ship Positions

Marigola

Last reported at 2016-Jul-13 14:13 UTC. Time now 2016-Jul-27 21:08 UTC.
Position N 29°22' W 094°48'.
Warning: this ship's position is 14 days out of date.

Length 145 m; draft 8.7 m.

Type: Ship (hazmat cat A). MMSI: 247567000.

Date/timePositionNaut miles runAvg speedWind from/ knotsBaromVisibWave heightAir tempDewpointWater temp
2016-Jul-13 14:13N 29°22' W 094°48'812.0
2016-Jul-13 13:31N 29°29' W 094°52'1111.5
2016-Jul-13 12:32N 29°39' W 094°58'9 8.8
2016-Jul-13 11:33N 29°46' W 095°04'6 6.2
2016-Jul-13 10:33N 29°45' W 095°11'1 0.8
2016-Jul-13 09:33N 29°44' W 095°12'0 0.0
2016-Jul-13 08:33N 29°44' W 095°12'0 0.0
2016-Jul-13 07:30N 29°44' W 095°12'0 0.0
2016-Jul-13 05:33N 29°44' W 095°12'0 0.0
2016-Jul-13 04:33N 29°44' W 095°12'0 0.0
2016-Jul-13 03:33N 29°44' W 095°12'0 0.0
2016-Jul-13 02:33N 29°44' W 095°12'0 0.0
2016-Jul-13 01:33N 29°44' W 095°12'0 0.0
2016-Jul-13 00:33N 29°44' W 095°12'0 0.0
2016-Jul-12 23:30N 29°44' W 095°12'0 0.0
2016-Jul-12 22:33N 29°44' W 095°12'0 0.0
2016-Jul-12 21:33N 29°44' W 095°12'0 0.0
2016-Jul-12 20:33N 29°44' W 095°12'0 0.0
2016-Jul-12 19:27N 29°44' W 095°12'0 0.0
2016-Jul-12 18:30N 29°44' W 095°12'0 0.0
2016-Jul-12 17:33N 29°44' W 095°12'0 0.0
2016-Jul-12 16:24N 29°44' W 095°12'0 0.0
2016-Jul-12 15:33N 29°44' W 095°12'0 0.0
2016-Jul-12 14:33N 29°44' W 095°12'0 0.0
2016-Jul-12 13:33N 29°44' W 095°12'0 0.0
2016-Jul-12 12:30N 29°44' W 095°12'0 0.0
2016-Jul-12 11:27N 29°44' W 095°12'0 0.0
2016-Jul-12 10:33N 29°44' W 095°12'0 0.0
2016-Jul-12 09:30N 29°44' W 095°12'0 0.0
2016-Jul-12 08:33N 29°44' W 095°12'0 0.0
2016-Jul-12 07:33N 29°44' W 095°12'0 0.0
2016-Jul-12 06:33N 29°44' W 095°12'0 0.0
2016-Jul-12 05:33N 29°44' W 095°12'0 0.0
2016-Jul-12 04:30N 29°44' W 095°12'0 0.0
2016-Jul-12 03:24N 29°44' W 095°12'0 0.0
2016-Jul-12 02:30N 29°44' W 095°12'0 0.0
2016-Jul-12 01:33N 29°44' W 095°12'0 0.0
2016-Jul-12 00:33N 29°44' W 095°12'0 0.0
2016-Jul-11 23:33N 29°44' W 095°12'0 0.0
2016-Jul-11 22:30N 29°44' W 095°12'0 0.0
2016-Jul-11 21:33N 29°44' W 095°12'0 0.0
2016-Jul-11 20:33N 29°44' W 095°12'0 0.0
2016-Jul-11 19:30N 29°44' W 095°12'0 0.1
2016-Jul-11 18:33N 29°44' W 095°12'5 5.0
2016-Jul-11 17:33N 29°44' W 095°07'7 6.5
2016-Jul-11 16:33N 29°42' W 094°60'1313.0
2016-Jul-11 15:32N 29°30' W 094°52'11512.2
2016-Jul-11 06:06N 28°22' W 093°07'  

Dump ship's entire track history